AirNav   Pilot Hours Calculator
 
 1456 users online  

31PA Foxcatcher Farm Heliport
Newtown Square, Pennsylvania, USA

GOING TO NEWTOWN SQUARE?


FAA INFORMATION EFFECTIVE 02 JANUARY 2020

Location

FAA Identifier: 31PA
Lat/Long: 39-59-52.4300N 075-24-54.6500W
39-59.873833N 075-24.910833W
39.9978972,-75.4151806
(estimated)
Elevation: 440 ft. / 134 m (estimated)
Variation: 12W (1995)
From city: 1 mile S of NEWTOWN SQUARE, PA
Time zone: UTC -5 (UTC -4 during Daylight Saving Time)
Zip code: 19073

Heliport Operations

Heliport use: Private use. Permission required prior to landing
Activation date: 12/1995
Control tower: no
ARTCC: NEW YORK CENTER
FSS: WILLIAMSPORT FLIGHT SERVICE STATION
Attendance: UNATNDD
Segmented circle: no

Heliport Communications

WX AWOS-3T at OQN (8 nm W): 121.4 ((610) 692-6190)
WX AWOS-3 at LOM (11 nm NE): 118.925 (215-646-1068)
WX ASOS at PHL (11 nm SE): PHONE 215-492-9617
WX ASOS at PTW (16 nm NW): 119.425 (610-495-0823)
WX ASOS at PNE (19 nm E): 121.15 (215-677-0146)

Nearby radio navigation aids

VOR radial/distance  VOR name  Freq  Var
MXEr077/12.7MODENA VORTAC113.2009W
PTWr163/15.0POTTSTOWN VORTAC116.5009W
DQOr035/21.1DUPONT VORTAC114.0010W
OODr357/22.3WOODSTOWN VORTAC112.8010W
ARDr247/27.9YARDLEY VOR/DME108.2010W
VCNr333/34.5CEDAR LAKE VOR/DME115.2010W
ETXr170/37.1EAST TEXAS VOR/DME110.2009W
GXUr281/37.6MC GUIRE VORTAC110.6012W

 
NDB name  Hdg/Dist  Freq  Var  ID
AMBLER230/9.727512WING .. -. --.
RAINBOW351/37.136311WRNB .-. -. -...

Heliport Services

Runway Information

Helipad H1

Dimensions: 150 x 150 ft. / 46 x 46 m
Surface: turf
Traffic pattern: leftleft

Heliport Ownership and Management from official FAA records

Ownership: Privately-owned
Owner: JOHN E. DU PONT
P.O. BOX 358
NEWTOWN SQUARE, PA 19073
Phone 215-353-7503
Manager: TARAS M. WOCHOK
13 PAOLI COURT
PAOLI, PA 19301
Phone 610-296-9900

Heliport Operational Statistics

Aircraft based on the field: 1
Helicopters: 1
    

Additional Remarks

A52-H1 75 FT TREES 1000 FT FM ALL SIDES OF HELIPORT.
FOR CD CTC PHILADELPHIA APCH AT 800-354-9884.

Instrument Procedures

There are no published instrument procedures at 31PA.

Some nearby airports with instrument procedures:

KOQN - Brandywine Regional Airport (8 nm W)
KLOM - Wings Field Airport (11 nm NE)
KPHL - Philadelphia International Airport (11 nm SE)
N10 - Perkiomen Valley Airport (12 nm N)
7N7 - Spitfire Aerodrome (16 nm S)
KPTW - Heritage Field Airport (16 nm NW)
N57 - New Garden Airport (19 nm SW)
KPNE - Northeast Philadelphia Airport (19 nm E)
N47 - Pottstown Municipal Airport (20 nm NW)
 
Loc | Ops | Rwys | IFR | FBO | Links
Com | Nav | Svcs | Stats | Notes
Area around 31PA (Foxcatcher Farm Heliport)
 
Road maps at: MapQuest Bing Google
 
Aerial photo
No photo
 
Sectional chart

 
Airport distance calculator
Flying to Foxcatcher Farm Heliport? Find the distance to fly.

From to 31PA

Sunrise and sunset
Times for 23-Jan-2020
 Local
(UTC-5)
 Zulu
(UTC)
Morning civil twilight06:4911:49
Sunrise07:1912:19
Sunset17:0922:09
Evening civil twilight17:3822:38

Current date and time
Zulu (UTC)  23-Jan-2020 23:25:37
Local (UTC-5)  23-Jan-2020 18:25:37
 
METAR
KOQN 
8nm W 
232255Z AUTO 00000KT 10SM CLR 05/M07 A3035 RMK AO2
KLOM 
11nm NE 
232255Z AUTO 00000KT 10SM CLR 02/M06 A3035 RMK AO2 T00151058
KPHL 
11nm SE 
232254Z 24003KT 10SM OVC200 05/M09 A3036 RMK AO2 SLP282 T00501089
KPTW 
15nm NW 
232254Z AUTO 00000KT 9SM CLR 01/M06 A3036 RMK AO2 SLP281 T00111061
KPNE 
19nm E 
232254Z 13003KT 10SM CLR 05/M08 A3037 RMK AO2 SLP284 T00501083
TAF
KPHL 
11nm SE 
231738Z 2318/2424 VRB03KT P6SM BKN250 FM241500 05005KT P6SM BKN200
KPNE 
19nm E 
231738Z 2318/2418 VRB03KT P6SM BKN250 FM241200 VRB02KT P6SM SCT200
NOTAMs
Click for the latest NOTAMs
NOTAMs are issued by the DoD/FAA and will open in a separate window not controlled by AirNav.

 

 
 

Would you like to see your business listed on this page?

 If your business provides an interesting product or service to pilots, flight crews, aircraft, or users of the Foxcatcher Farm Heliport, you should consider listing it here.  To start the listing process, click on the button below
 
Add a business
 

Other Pages about Foxcatcher Farm Heliport

Update a link
 
Copyright © AirNav, LLC. All rights reserved. Privacy Policy  Contact